Time;durP1;ratioP1;P1;durP2;ratioP2;P2;SDS_P1;SDS_P2;PMS_P1;PMS_P2;Temp;Humidity;BMP_temperature;BMP_pressure;BME280_temperature;BME280_humidity;BME280_pressure;Samples;Min_cycle;Max_cycle;Signal;HPM_P1;HPM_P2
2023/02/20 00:01:19;;;;;;;0.68;0.20;;;18.00;34.30;;;;;;5123260;27;20607;-88
2023/02/20 00:03:45;;;;;;;0.50;0.38;;;18.00;34.20;;;;;;5106318;27;20171;-88
2023/02/20 00:06:13;;;;;;;0.50;0.30;;;18.00;34.30;;;;;;5107344;27;20199;-88
2023/02/20 00:08:40;;;;;;;0.43;0.22;;;18.00;34.30;;;;;;5106818;27;20178;-89
2023/02/20 00:11:06;;;;;;;0.38;0.15;;;17.90;34.30;;;;;;5123854;27;20606;-89
2023/02/20 00:13:31;;;;;;;0.90;0.32;;;18.00;34.40;;;;;;5106900;27;20178;-88
2023/02/20 00:15:57;;;;;;;0.30;0.28;;;17.90;34.40;;;;;;5103801;27;20174;-88
2023/02/20 00:18:25;;;;;;;1.30;0.20;;;17.90;34.30;;;;;;5120569;27;20170;-87
2023/02/20 00:20:52;;;;;;;0.95;0.25;;;18.00;34.50;;;;;;5103181;27;20195;-88
2023/02/20 00:23:19;;;;;;;0.32;0.25;;;17.90;34.40;;;;;;5120571;27;20171;-89
2023/02/20 00:25:45;;;;;;;0.30;0.30;;;17.90;34.50;;;;;;5119734;27;20190;-88
2023/02/20 00:28:10;;;;;;;2.20;0.50;;;17.80;34.40;;;;;;5102902;27;20614;-89
2023/02/20 00:30:36;;;;;;;0.95;0.35;;;17.90;34.50;;;;;;5103028;27;20425;-89
2023/02/20 00:33:04;;;;;;;0.80;0.30;;;17.90;34.50;;;;;;5136689;27;20606;-89
2023/02/20 00:35:30;;;;;;;0.43;0.20;;;17.90;34.60;;;;;;5103063;27;20156;-89
2023/02/20 00:37:56;;;;;;;0.50;0.30;;;17.90;34.60;;;;;;5119421;27;20155;-89
2023/02/20 00:40:23;;;;;;;0.30;0.30;;;17.90;34.60;;;;;;5103067;27;20172;-89
2023/02/20 00:42:52;;;;;;;1.65;0.20;;;17.80;34.60;;;;;;5103324;27;20217;-87
2023/02/20 00:45:18;;;;;;;1.05;0.30;;;17.90;34.60;;;;;;5120034;27;20167;-88
2023/02/20 00:47:43;;;;;;;0.65;0.32;;;17.90;34.70;;;;;;5102431;27;20219;-88
2023/02/20 00:50:09;;;;;;;1.50;0.50;;;17.90;34.70;;;;;;5102771;27;20160;-88
2023/02/20 00:52:35;;;;;;;1.15;0.30;;;17.80;34.60;;;;;;5119728;27;20212;-88
2023/02/20 00:55:02;;;;;;;0.90;0.30;;;17.80;34.70;;;;;;5119514;27;20185;-88
2023/02/20 00:57:30;;;;;;;0.30;0.20;;;17.80;34.70;;;;;;5102196;27;20692;-89
2023/02/20 00:59:59;;;;;;;1.17;0.30;;;17.80;34.70;;;;;;5119254;27;20175;-88
2023/02/20 01:02:25;;;;;;;0.63;0.32;;;17.80;34.80;;;;;;5118786;27;20227;-88
2023/02/20 01:04:51;;;;;;;0.85;0.38;;;17.80;34.80;;;;;;5101959;27;20170;-88
2023/02/20 01:07:17;;;;;;;1.27;0.30;;;17.80;35.40;;;;;;5102125;27;20155;-88
2023/02/20 01:09:43;;;;;;;0.40;0.30;;;17.90;34.80;;;;;;5119579;27;20191;-88
2023/02/20 01:12:09;;;;;;;0.17;0.15;;;17.80;34.80;;;;;;5118933;27;20166;-89
2023/02/20 01:14:34;;;;;;;1.00;0.30;;;17.80;34.80;;;;;;5119211;27;20174;-89
2023/02/20 01:17:00;;;;;;;0.95;0.50;;;17.80;34.80;;;;;;5102189;27;20174;-88
2023/02/20 01:19:27;;;;;;;0.65;0.30;;;17.80;34.90;;;;;;5102666;27;20168;-88
2023/02/20 01:21:54;;;;;;;0.52;0.30;;;17.80;34.90;;;;;;5101992;27;20538;-89
2023/02/20 01:24:21;;;;;;;0.65;0.30;;;17.80;35.00;;;;;;5118716;27;20605;-87
2023/02/20 01:26:47;;;;;;;0.50;0.20;;;17.80;34.90;;;;;;5117884;28;20204;-88
2023/02/20 01:29:14;;;;;;;0.20;0.20;;;17.70;34.90;;;;;;5102001;27;20163;-87
2023/02/20 01:31:49;;;;;;;0.20;0.20;;;17.80;35.00;;;;;;5102214;27;20198;-87
2023/02/20 01:34:15;;;;;;;0.40;0.20;;;17.80;35.00;;;;;;5102372;27;20190;-88
2023/02/20 01:36:48;;;;;;;0.90;0.20;;;17.80;35.00;;;;;;5101503;27;20190;-87
2023/02/20 01:39:16;;;;;;;1.27;0.20;;;17.80;35.70;;;;;;5102139;27;20195;-89
2023/02/20 01:41:42;;;;;;;0.30;0.20;;;17.80;35.00;;;;;;5101063;27;20665;-88
2023/02/20 01:44:16;;;;;;;0.60;0.20;;;17.70;35.00;;;;;;5101580;27;20155;-88
2023/02/20 01:46:43;;;;;;;0.35;0.30;;;17.80;35.10;;;;;;5102410;27;20249;-88
2023/02/20 01:49:11;;;;;;;0.38;0.25;;;17.80;35.70;;;;;;5101472;27;20251;-88
2023/02/20 01:51:40;;;;;;;1.48;0.30;;;17.80;35.00;;;;;;5118732;27;20160;-87
2023/02/20 01:54:07;;;;;;;0.75;0.38;;;17.80;35.10;;;;;;5101724;27;20268;-88
2023/02/20 01:56:33;;;;;;;0.47;0.30;;;17.80;35.10;;;;;;5097325;28;20176;-88
2023/02/20 01:58:59;;;;;;;0.85;0.40;;;17.80;35.10;;;;;;5096980;28;20187;-88
2023/02/20 02:01:25;;;;;;;0.38;0.30;;;17.70;35.10;;;;;;5080270;28;20222;-88
2023/02/20 02:03:52;;;;;;;0.45;0.30;;;17.80;35.10;;;;;;5080253;28;20172;-88
2023/02/20 02:06:19;;;;;;;0.20;0.20;;;17.70;35.10;;;;;;5079666;28;20206;-89
2023/02/20 02:08:47;;;;;;;0.40;0.32;;;17.70;35.10;;;;;;5079859;28;20666;-89
2023/02/20 02:11:15;;;;;;;1.10;0.25;;;17.70;35.10;;;;;;5097927;28;20213;-88
2023/02/20 02:13:43;;;;;;;0.20;0.20;;;17.70;35.10;;;;;;5096741;28;20191;-87
2023/02/20 02:16:47;;;;;;;0.90;0.25;;;17.70;35.10;;;;;;5079482;28;20180;-88
2023/02/20 02:19:40;;;;;;;0.90;0.30;;;17.70;35.20;;;;;;5096829;28;20186;-87
2023/02/20 02:22:24;;;;;;;1.15;0.50;;;17.80;35.30;;;;;;5096219;28;20203;-88
2023/02/20 02:25:07;;;;;;;0.88;0.30;;;17.70;35.30;;;;;;5096604;28;20515;-88
2023/02/20 02:27:47;;;;;;;0.52;0.32;;;17.70;35.20;;;;;;5078570;28;20187;-88
2023/02/20 02:30:37;;;;;;;0.30;0.30;;;17.70;35.20;;;;;;5077075;28;20160;-89
2023/02/20 02:33:06;;;;;;;0.38;0.20;;;17.70;35.30;;;;;;5094269;28;20247;-88
2023/02/20 02:35:50;;;;;;;0.32;0.20;;;17.70;36.00;;;;;;5110956;28;20157;-88
2023/02/20 02:38:25;;;;;;;0.82;0.30;;;17.60;35.30;;;;;;5077395;28;20165;-88
2023/02/20 02:40:56;;;;;;;0.40;0.40;;;17.70;35.40;;;;;;5076527;28;20230;-88
2023/02/20 02:43:32;;;;;;;0.93;0.30;;;17.70;35.40;;;;;;5094138;28;20217;-89
2023/02/20 02:46:03;;;;;;;0.35;0.20;;;17.60;35.40;;;;;;5077112;28;20164;-89
2023/02/20 02:48:51;;;;;;;2.05;0.25;;;17.70;35.40;;;;;;5076877;28;20255;-88
2023/02/20 02:51:19;;;;;;;0.30;0.30;;;17.70;35.40;;;;;;5077457;28;20165;-88
2023/02/20 02:54:06;;;;;;;0.43;0.30;;;17.70;35.40;;;;;;5076917;28;20657;-88
2023/02/20 02:56:34;;;;;;;0.75;0.30;;;17.60;35.40;;;;;;5113281;28;20325;-88
2023/02/20 02:59:00;;;;;;;0.20;0.20;;;17.60;35.40;;;;;;5079836;28;20172;-88
2023/02/20 03:01:25;;;;;;;0.65;0.20;;;17.60;36.10;;;;;;5089163;28;20257;-88
2023/02/20 03:03:51;;;;;;;0.57;0.30;;;17.70;35.50;;;;;;5099556;28;20203;-89
2023/02/20 03:06:22;;;;;;;0.95;0.30;;;17.70;35.40;;;;;;5082807;28;20274;-89
2023/02/20 03:08:56;;;;;;;0.77;0.30;;;17.70;35.40;;;;;;5100442;28;20163;-89
2023/02/20 03:11:24;;;;;;;0.20;0.20;;;17.70;35.40;;;;;;5101210;28;20602;-88
2023/02/20 03:17:27;;;;;;;0.28;0.20;;;17.60;35.40;;;;;;5109753;28;20185;-90
2023/02/20 03:19:54;;;;;;;0.13;0.13;;;17.60;35.40;;;;;;5133881;28;20167;-88
2023/02/20 03:22:28;;;;;;;1.77;0.45;;;17.70;35.50;;;;;;5099820;28;20211;-88
2023/02/20 03:24:55;;;;;;;0.38;0.30;;;17.60;35.50;;;;;;5099860;28;20167;-89
2023/02/20 03:27:57;;;;;;;0.63;0.30;;;17.60;35.50;;;;;;5090670;28;20176;-89
2023/02/20 03:30:31;;;;;;;0.95;0.20;;;17.60;35.50;;;;;;5113836;28;20170;-88
2023/02/20 03:43:43;;;;;;;0.20;0.20;;;17.60;35.60;;;;;;5099107;28;20181;-88
2023/02/20 03:46:12;;;;;;;0.60;0.20;;;17.50;35.60;;;;;;5080817;28;20498;-89
2023/02/20 03:48:44;;;;;;;0.43;0.30;;;17.60;36.40;;;;;;5080529;28;20168;-88
2023/02/20 03:51:10;;;;;;;0.98;0.28;;;17.60;35.70;;;;;;5082292;28;20305;-88
2023/02/20 03:53:37;;;;;;;1.42;0.35;;;17.60;35.70;;;;;;5083541;28;20198;-88
2023/02/20 03:56:04;;;;;;;2.00;0.30;;;17.60;35.70;;;;;;5084649;28;20246;-89
2023/02/20 03:58:33;;;;;;;0.30;0.20;;;17.50;35.70;;;;;;5083911;28;20262;-88
2023/02/20 04:01:00;;;;;;;0.63;0.20;;;17.50;35.70;;;;;;5106096;27;20219;-88
2023/02/20 04:03:28;;;;;;;0.28;0.20;;;17.60;35.80;;;;;;5121196;27;20169;-88
2023/02/20 04:05:55;;;;;;;0.63;0.30;;;17.50;35.70;;;;;;5103690;27;20209;-89
2023/02/20 04:08:23;;;;;;;0.65;0.32;;;17.50;35.70;;;;;;5103435;27;20509;-89
2023/02/20 04:10:56;;;;;;;0.20;0.20;;;17.60;35.80;;;;;;5104079;27;20163;-88
2023/02/20 04:13:22;;;;;;;0.20;0.20;;;17.50;35.80;;;;;;5103646;27;20159;-89
2023/02/20 04:15:48;;;;;;;0.60;0.55;;;17.50;35.70;;;;;;5103861;27;20160;-89
2023/02/20 04:18:17;;;;;;;1.13;0.28;;;17.50;35.80;;;;;;5103595;27;20167;-88
2023/02/20 04:20:45;;;;;;;0.30;0.22;;;17.50;35.80;;;;;;5104638;27;20151;-89
2023/02/20 04:23:16;;;;;;;0.32;0.20;;;17.50;35.80;;;;;;5103462;27;20561;-88
2023/02/20 04:25:50;;;;;;;0.32;0.20;;;17.50;35.80;;;;;;5120619;27;20152;-88
2023/02/20 04:28:17;;;;;;;1.52;0.30;;;17.50;35.80;;;;;;5104607;27;20152;-88
2023/02/20 04:30:43;;;;;;;0.73;0.40;;;17.50;35.80;;;;;;5103173;27;20190;-87
2023/02/20 04:33:12;;;;;;;1.23;0.40;;;17.60;35.80;;;;;;5103940;27;20205;-89
2023/02/20 04:35:38;;;;;;;0.45;0.38;;;17.50;35.80;;;;;;5104006;27;20250;-88
2023/02/20 04:38:04;;;;;;;0.40;0.28;;;17.50;35.80;;;;;;5120593;27;20571;-88
2023/02/20 04:40:30;;;;;;;0.90;0.28;;;17.50;35.80;;;;;;5120225;27;20211;-89
2023/02/20 04:42:55;;;;;;;0.30;0.20;;;17.50;35.90;;;;;;5103431;27;20329;-88
2023/02/20 04:45:21;;;;;;;0.40;0.30;;;17.50;35.90;;;;;;5103384;27;20155;-88
2023/02/20 04:47:47;;;;;;;0.20;0.20;;;17.50;35.80;;;;;;5103042;27;20164;-88
2023/02/20 04:50:20;;;;;;;0.25;0.20;;;17.50;35.90;;;;;;5120208;27;20154;-89
2023/02/20 04:52:46;;;;;;;0.20;0.20;;;17.50;35.80;;;;;;5104416;27;20159;-88
2023/02/20 04:55:12;;;;;;;1.15;0.25;;;17.50;35.80;;;;;;5102728;27;20502;-88
2023/02/20 04:57:38;;;;;;;1.83;0.20;;;17.50;35.90;;;;;;5102849;27;20247;-89
2023/02/20 05:00:07;;;;;;;0.45;0.40;;;17.50;35.90;;;;;;5103037;27;20205;-88
2023/02/20 05:02:38;;;;;;;0.20;0.20;;;17.50;36.60;;;;;;5102592;27;20249;-88
2023/02/20 05:05:04;;;;;;;0.80;0.30;;;17.50;35.90;;;;;;5119980;27;20199;-88
2023/02/20 05:07:30;;;;;;;0.35;0.20;;;17.50;36.00;;;;;;5119977;27;20167;-88
2023/02/20 05:09:56;;;;;;;1.05;0.30;;;17.50;36.00;;;;;;5120003;27;20159;-88
2023/02/20 05:12:22;;;;;;;1.75;0.20;;;17.40;36.00;;;;;;5102686;27;20696;-89
2023/02/20 05:14:50;;;;;;;0.55;0.20;;;17.50;36.00;;;;;;5102197;27;20186;-88
2023/02/20 05:17:16;;;;;;;0.20;0.20;;;17.50;36.10;;;;;;5102480;27;20187;-89
2023/02/20 05:19:42;;;;;;;0.20;0.20;;;17.40;36.00;;;;;;5102166;27;20164;-88
2023/02/20 05:22:18;;;;;;;0.50;0.20;;;17.40;36.00;;;;;;5102311;27;20539;-89
2023/02/20 05:24:44;;;;;;;0.28;0.20;;;17.40;36.00;;;;;;5104658;27;20227;-88
2023/02/20 05:27:13;;;;;;;0.30;0.30;;;17.40;36.00;;;;;;5102183;27;20155;-88
2023/02/20 05:29:43;;;;;;;0.20;0.20;;;17.40;36.00;;;;;;5103349;27;20178;-88
2023/02/20 05:32:10;;;;;;;0.25;0.25;;;17.40;36.10;;;;;;5119834;27;20196;-87
2023/02/20 05:34:37;;;;;;;0.90;0.30;;;17.40;36.10;;;;;;5119116;27;20162;-88
2023/02/20 05:37:03;;;;;;;0.65;0.30;;;17.40;36.00;;;;;;5136200;27;20154;-88
2023/02/20 05:39:29;;;;;;;0.20;0.20;;;17.40;36.10;;;;;;5119707;27;20527;-88
2023/02/20 05:41:56;;;;;;;0.50;0.20;;;17.40;36.00;;;;;;5118931;27;20180;-88
2023/02/20 05:44:22;;;;;;;0.47;0.20;;;17.40;36.00;;;;;;5136506;27;20159;-88
2023/02/20 05:46:50;;;;;;;0.20;0.20;;;17.40;36.00;;;;;;5101708;27;20167;-88
2023/02/20 05:49:16;;;;;;;0.57;0.22;;;17.40;36.10;;;;;;5103088;27;20209;-87
2023/02/20 05:51:43;;;;;;;0.30;0.20;;;17.40;36.10;;;;;;5101824;27;20223;-88
2023/02/20 05:54:09;;;;;;;0.20;0.20;;;17.40;36.10;;;;;;5135646;27;20191;-88
2023/02/20 05:56:35;;;;;;;0.25;0.20;;;17.40;36.10;;;;;;5102377;27;20258;-88
2023/02/20 05:59:01;;;;;;;0.25;0.20;;;17.40;36.20;;;;;;5119414;27;20192;-88
2023/02/20 06:01:28;;;;;;;2.05;0.30;;;17.40;36.10;;;;;;5118584;27;20215;-88
2023/02/20 06:03:54;;;;;;;0.38;0.20;;;17.40;36.20;;;;;;5102559;27;20182;-88
2023/02/20 06:06:35;;;;;;;0.85;0.20;;;17.40;36.10;;;;;;5118276;27;20517;-87
2023/02/20 06:09:00;;;;;;;0.30;0.20;;;17.40;36.20;;;;;;5118352;27;20151;-88
2023/02/20 06:11:27;;;;;;;0.52;0.28;;;17.30;36.20;;;;;;5102044;27;20162;-87
2023/02/20 06:13:54;;;;;;;1.00;0.30;;;17.40;36.20;;;;;;5117724;27;20163;-87
2023/02/20 06:16:22;;;;;;;0.30;0.30;;;17.40;36.20;;;;;;5118740;27;20148;-88
2023/02/20 06:18:52;;;;;;;0.22;0.20;;;17.40;36.20;;;;;;5092548;28;20225;-89
2023/02/20 06:21:21;;;;;;;0.17;0.17;;;17.40;36.10;;;;;;5097930;28;20188;-88
2023/02/20 06:23:50;;;;;;;0.28;0.28;;;17.40;36.20;;;;;;5081975;28;20160;-89
2023/02/20 06:26:17;;;;;;;0.35;0.20;;;17.40;36.20;;;;;;5131291;27;20525;-89
2023/02/20 06:28:43;;;;;;;0.65;0.30;;;17.30;36.20;;;;;;5097275;28;20156;-88
2023/02/20 06:31:10;;;;;;;0.52;0.20;;;17.40;36.20;;;;;;5081399;28;20170;-88
2023/02/20 06:33:35;;;;;;;0.55;0.25;;;17.30;36.30;;;;;;5080648;28;20247;-90
2023/02/20 06:36:05;;;;;;;0.28;0.20;;;17.40;36.30;;;;;;5097294;28;20198;-89
2023/02/20 06:38:32;;;;;;;0.65;0.30;;;17.40;36.30;;;;;;5080562;28;20164;-90
2023/02/20 06:40:58;;;;;;;0.55;0.30;;;17.40;36.30;;;;;;5097763;28;20209;-88
2023/02/20 06:43:24;;;;;;;0.40;0.30;;;17.30;36.30;;;;;;5114069;28;20152;-88
2023/02/20 06:45:50;;;;;;;0.40;0.30;;;17.30;36.30;;;;;;5081141;28;20298;-89
2023/02/20 06:48:18;;;;;;;0.20;0.20;;;17.40;36.30;;;;;;5080700;28;20153;-89
2023/02/20 06:50:44;;;;;;;0.90;0.30;;;17.40;36.40;;;;;;5086351;28;20243;-86
2023/02/20 06:53:11;;;;;;;0.32;0.22;;;17.30;36.30;;;;;;5090811;28;20156;-85
2023/02/20 06:55:38;;;;;;;1.75;0.38;;;17.40;36.40;;;;;;5125216;28;20230;-86
2023/02/20 06:58:04;;;;;;;0.35;0.22;;;17.40;36.40;;;;;;5090862;28;20156;-86
2023/02/20 07:00:30;;;;;;;0.20;0.17;;;17.30;36.40;;;;;;5124342;28;20148;-85
2023/02/20 07:02:57;;;;;;;0.32;0.30;;;17.40;36.40;;;;;;5142931;27;20206;-86
2023/02/20 07:05:23;;;;;;;0.30;0.25;;;17.30;37.00;;;;;;5092073;28;20158;-86
2023/02/20 07:07:50;;;;;;;0.95;0.20;;;17.30;36.40;;;;;;5088861;28;20239;-85
2023/02/20 07:10:16;;;;;;;4.90;0.30;;;17.40;36.50;;;;;;5103545;28;20263;-87
2023/02/20 07:12:43;;;;;;;1.35;0.40;;;17.40;36.50;;;;;;5103625;28;20218;-87
2023/02/20 07:15:10;;;;;;;0.25;0.25;;;17.40;36.50;;;;;;5087542;28;20178;-87
2023/02/20 07:17:35;;;;;;;1.45;0.20;;;17.30;36.40;;;;;;5103720;28;20266;-89
2023/02/20 07:20:05;;;;;;;0.30;0.30;;;17.30;36.40;;;;;;5100927;28;20271;-88
2023/02/20 07:22:33;;;;;;;0.32;0.30;;;17.40;36.50;;;;;;5101315;28;20744;-85
2023/02/20 07:24:59;;;;;;;0.75;0.30;;;17.40;36.40;;;;;;5119009;28;20159;-86
2023/02/20 07:27:27;;;;;;;0.50;0.20;;;17.40;36.40;;;;;;5087436;28;20180;-87
2023/02/20 07:29:53;;;;;;;1.02;0.30;;;17.40;36.40;;;;;;5105593;28;20610;-84
2023/02/20 07:32:29;;;;;;;1.10;0.30;;;17.40;36.50;;;;;;5102815;28;20219;-88
2023/02/20 07:34:57;;;;;;;0.75;0.30;;;17.40;36.50;;;;;;5081830;28;20239;-88
2023/02/20 07:37:31;;;;;;;0.65;0.20;;;17.40;36.40;;;;;;5079702;28;20200;-86
2023/02/20 07:40:22;;;;;;;3.17;0.28;;;17.50;36.50;;;;;;5069036;28;20271;-87
2023/02/20 07:42:52;;;;;;;2.20;0.35;;;17.50;36.50;;;;;;5040121;28;20223;-88
2023/02/20 07:45:18;;;;;;;4.63;0.43;;;17.60;36.50;;;;;;5066371;28;20178;-88
2023/02/20 07:47:54;;;;;;;3.80;0.52;;;17.70;36.20;;;;;;5026346;28;20316;-88
2023/02/20 07:50:24;;;;;;;3.63;0.50;;;17.80;36.20;;;;;;5029074;28;20178;-88
2023/02/20 07:53:02;;;;;;;;;;;;;;;;;;;;;
2023/02/20 07:55:51;;;;;;;2.63;0.40;;;17.80;36.20;;;;;;5027232;28;20277;-85
2023/02/20 08:01:39;;;;;;;3.10;0.40;;;17.90;36.30;;;;;;5063403;28;20257;-87
2023/02/20 08:04:04;;;;;;;4.88;0.65;;;17.90;36.30;;;;;;5080215;28;20173;-86
2023/02/20 08:06:30;;;;;;;6.85;0.70;;;17.90;36.20;;;;;;5081229;28;20267;-86
2023/02/20 08:08:58;;;;;;;3.60;0.40;;;17.90;36.40;;;;;;5085707;28;20272;-86
2023/02/20 08:11:32;;;;;;;1.98;0.43;;;17.90;36.30;;;;;;5083717;28;20251;-86
2023/02/20 08:13:59;;;;;;;1.45;0.40;;;17.90;36.50;;;;;;5083636;28;20184;-87
2023/02/20 08:16:25;;;;;;;4.95;0.60;;;17.90;36.60;;;;;;5083268;28;20173;-84
2023/02/20 08:18:54;;;;;;;4.60;0.65;;;18.00;36.70;;;;;;5110220;28;20223;-85
2023/02/20 08:21:29;;;;;;;5.43;0.70;;;18.00;36.60;;;;;;5102448;28;20199;-85
2023/02/20 08:23:55;;;;;;;4.30;0.50;;;18.00;36.70;;;;;;5132075;27;20315;-84
2023/02/20 08:26:20;;;;;;;2.35;0.60;;;18.00;37.60;;;;;;5128666;27;20259;-85
2023/02/20 08:28:57;;;;;;;3.90;0.75;;;18.00;36.80;;;;;;5128650;27;20165;-85
2023/02/20 08:31:27;;;;;;;7.53;0.30;;;18.00;36.90;;;;;;5103552;28;20184;-85
2023/02/20 08:33:55;;;;;;;6.10;0.50;;;18.00;37.10;;;;;;5083924;28;20554;-85
2023/02/20 08:36:31;;;;;;;;;;;;;;;;;;;;;
2023/02/20 08:38:58;;;;;;;2.83;0.50;;;18.10;37.10;;;;;;5040637;28;20275;-85
2023/02/20 08:41:24;;;;;;;3.63;0.65;;;18.10;37.20;;;;;;5083633;28;20794;-86
2023/02/20 08:43:50;;;;;;;7.95;0.90;;;18.10;37.30;;;;;;5084513;28;20180;-88
2023/02/20 08:46:16;;;;;;;2.65;0.38;;;18.10;37.40;;;;;;5067661;28;20185;-86
2023/02/20 08:48:43;;;;;;;2.00;0.40;;;18.10;37.50;;;;;;5063980;28;20172;-86
2023/02/20 08:51:09;;;;;;;5.72;0.80;;;18.10;37.60;;;;;;5066038;28;20201;-87
2023/02/20 08:53:36;;;;;;;6.20;0.70;;;18.10;37.70;;;;;;5066508;28;20620;-86
2023/02/20 08:56:04;;;;;;;4.45;0.52;;;18.10;37.80;;;;;;5075823;28;20180;-86
2023/02/20 08:58:30;;;;;;;3.72;0.50;;;18.10;38.00;;;;;;5068295;28;20265;-85
2023/02/20 09:00:56;;;;;;;6.22;0.40;;;18.10;38.10;;;;;;5096530;28;20229;-86
2023/02/20 09:03:22;;;;;;;2.05;0.38;;;18.20;38.20;;;;;;5118717;28;20237;-87
2023/02/20 09:05:48;;;;;;;2.75;0.43;;;18.10;38.20;;;;;;5084469;28;20169;-85
2023/02/20 09:08:14;;;;;;;2.65;0.40;;;18.20;38.30;;;;;;5084701;28;20164;-86
2023/02/20 09:10:45;;;;;;;5.18;0.45;;;18.20;38.30;;;;;;5085582;28;20669;-86
2023/02/20 09:13:18;;;;;;;4.82;0.57;;;18.20;39.30;;;;;;5087921;28;20247;-85
2023/02/20 09:15:44;;;;;;;4.07;0.50;;;18.20;38.90;;;;;;5125253;27;20202;-86
2023/02/20 09:18:19;;;;;;;2.05;0.50;;;18.20;39.10;;;;;;5106187;27;20528;-85
2023/02/20 09:20:50;;;;;;;4.78;0.50;;;18.20;39.50;;;;;;5106030;27;20155;-84
2023/02/20 09:23:26;;;;;;;6.20;0.60;;;18.30;38.90;;;;;;5108145;27;20164;-84
2023/02/20 09:25:59;;;;;;;1.80;0.30;;;18.30;38.80;;;;;;5122712;27;20174;-85
2023/02/20 09:28:29;;;;;;;3.08;0.47;;;18.40;38.90;;;;;;5103249;27;20155;-85
2023/02/20 09:30:59;;;;;;;1.33;0.40;;;18.40;38.80;;;;;;5120264;27;20166;-86
2023/02/20 09:33:26;;;;;;;4.20;0.68;;;18.40;38.70;;;;;;5121466;27;20155;-86
2023/02/20 09:35:53;;;;;;;3.20;0.55;;;18.40;38.60;;;;;;5121432;27;20155;-87
2023/02/20 09:38:19;;;;;;;2.70;0.40;;;18.40;38.80;;;;;;5105781;27;20212;-85
2023/02/20 09:40:49;;;;;;;3.42;0.80;;;18.40;38.90;;;;;;5105193;27;20151;-86
2023/02/20 09:43:53;;;;;;;10.70;0.73;;;18.40;38.90;;;;;;5110510;28;20171;-84
2023/02/20 09:46:20;;;;;;;2.90;0.77;;;18.40;39.20;;;;;;5096360;28;20180;-86
2023/02/20 09:49:10;;;;;;;4.88;0.60;;;18.50;39.40;;;;;;5079111;28;20212;-83
2023/02/20 09:51:39;;;;;;;4.25;0.35;;;18.50;39.30;;;;;;5095375;28;20337;-88
2023/02/20 09:54:15;;;;;;;3.85;0.47;;;18.50;39.40;;;;;;5092839;28;20176;-87
2023/02/20 09:56:45;;;;;;;7.53;0.50;;;18.50;39.30;;;;;;5076418;28;20242;-83
2023/02/20 09:59:15;;;;;;;3.67;0.50;;;18.50;39.40;;;;;;5092003;28;20169;-84
2023/02/20 10:02:01;;;;;;;6.57;0.57;;;18.50;39.40;;;;;;5111667;28;20224;-84
2023/02/20 10:04:55;;;;;;;7.00;0.52;;;18.50;39.40;;;;;;5094031;28;20165;-85
2023/02/20 10:07:40;;;;;;;7.28;1.02;;;18.60;39.60;;;;;;5045407;28;20188;-83
2023/02/20 10:14:06;;;;;;;4.43;0.70;;;18.50;39.60;;;;;;4987971;28;20643;-85
2023/02/20 10:16:51;;;;;;;5.80;0.50;;;18.60;40.00;;;;;;5018991;28;20181;-84
2023/02/20 10:19:29;;;;;;;7.18;0.95;;;18.60;39.80;;;;;;5050109;28;20185;-87
2023/02/20 10:22:19;;;;;;;6.30;0.73;;;18.60;39.40;;;;;;5049886;28;20205;-88
2023/02/20 10:25:09;;;;;;;6.03;1.13;;;18.60;39.80;;;;;;5033026;28;20686;-85
2023/02/20 10:27:57;;;;;;;4.93;0.63;;;18.70;39.80;;;;;;5044307;28;20221;-84
2023/02/20 10:30:39;;;;;;;10.07;0.88;;;18.60;40.00;;;;;;5047799;28;20243;-85
2023/02/20 10:33:35;;;;;;;5.70;0.60;;;18.60;40.20;;;;;;5052575;28;20165;-87
2023/02/20 10:36:15;;;;;;;6.63;0.65;;;18.60;39.80;;;;;;5052848;28;20162;-85
2023/02/20 10:38:46;;;;;;;3.55;0.52;;;18.60;39.80;;;;;;5037619;28;20189;-87
2023/02/20 10:41:27;;;;;;;3.47;0.90;;;18.60;40.40;;;;;;5021921;28;20798;-82
2023/02/20 10:44:05;;;;;;;1.17;0.50;;;18.70;40.30;;;;;;5022184;28;20597;-84
2023/02/20 10:47:02;;;;;;;4.10;0.45;;;18.70;39.60;;;;;;5038624;28;20551;-86
2023/02/20 10:49:37;;;;;;;2.33;0.40;;;18.60;39.80;;;;;;5020420;28;20187;-83
2023/02/20 10:52:04;;;;;;;5.95;0.73;;;18.60;40.20;;;;;;5038522;28;20196;-84
2023/02/20 10:54:37;;;;;;;3.75;0.38;;;18.60;40.50;;;;;;5072014;28;20181;-84
2023/02/20 10:57:07;;;;;;;2.25;0.55;;;18.70;40.10;;;;;;5054755;28;20169;-84
2023/02/20 10:59:38;;;;;;;3.85;0.50;;;18.70;40.30;;;;;;5038512;28;20187;-83
2023/02/20 11:02:07;;;;;;;2.90;0.50;;;18.70;40.00;;;;;;5055900;28;20275;-85
2023/02/20 11:04:35;;;;;;;5.10;0.30;;;18.70;39.80;;;;;;5068029;28;20188;-86
2023/02/20 11:07:06;;;;;;;5.63;0.60;;;18.70;40.10;;;;;;5075872;28;20153;-85
2023/02/20 11:09:32;;;;;;;1.27;0.38;;;18.60;39.80;;;;;;5075543;28;20181;-86
2023/02/20 11:11:58;;;;;;;1.65;0.40;;;18.60;40.10;;;;;;5058039;28;20284;-85
2023/02/20 11:14:41;;;;;;;0.98;0.35;;;18.70;40.20;;;;;;5092384;28;20306;-86
2023/02/20 11:17:14;;;;;;;1.05;0.30;;;18.70;40.10;;;;;;5075834;28;20210;-87
2023/02/20 11:19:49;;;;;;;2.38;0.40;;;18.70;39.80;;;;;;5082027;28;20725;-87
2023/02/20 11:22:16;;;;;;;1.30;0.30;;;18.60;39.90;;;;;;5078506;28;20222;-85
2023/02/20 11:24:42;;;;;;;4.65;0.40;;;18.70;40.10;;;;;;5084609;28;20203;-83
2023/02/20 11:27:13;;;;;;;3.25;0.22;;;18.80;39.80;;;;;;5064353;28;20234;-86
2023/02/20 11:29:48;;;;;;;2.35;0.30;;;18.70;40.20;;;;;;5088053;28;20318;-85
2023/02/20 11:32:34;;;;;;;2.85;0.30;;;18.80;40.00;;;;;;5132578;28;20182;-88
2023/02/20 11:35:21;;;;;;;1.10;0.30;;;18.80;39.90;;;;;;5133082;28;20178;-85
2023/02/20 11:37:51;;;;;;;0.65;0.40;;;18.90;40.00;;;;;;5115358;28;20217;-87
2023/02/20 11:40:27;;;;;;;0.90;0.52;;;18.90;39.80;;;;;;5132913;28;20187;-86
2023/02/20 11:42:53;;;;;;;2.05;0.30;;;18.90;39.70;;;;;;5134019;28;20183;-86
2023/02/20 11:45:25;;;;;;;0.52;0.30;;;18.90;39.60;;;;;;5132280;28;20722;-84
2023/02/20 11:48:13;;;;;;;2.38;0.30;;;18.80;39.90;;;;;;5115235;28;20171;-84
2023/02/20 11:50:47;;;;;;;1.50;0.30;;;18.80;39.80;;;;;;5122502;28;20205;-85
2023/02/20 11:53:19;;;;;;;4.53;0.60;;;18.80;40.10;;;;;;5112792;28;20151;-84
2023/02/20 11:55:46;;;;;;;1.55;0.22;;;18.80;40.20;;;;;;5112414;28;20157;-85
2023/02/20 11:58:22;;;;;;;1.27;0.32;;;18.80;40.10;;;;;;5095477;28;20168;-86
2023/02/20 12:00:49;;;;;;;4.35;0.40;;;18.80;40.10;;;;;;5094851;28;20217;-85
2023/02/20 12:03:23;;;;;;;6.10;1.15;;;18.90;40.40;;;;;;5094961;28;20711;-85
2023/02/20 12:05:49;;;;;;;5.95;0.65;;;18.80;40.40;;;;;;5094805;28;20167;-86
2023/02/20 12:08:45;;;;;;;10.25;0.85;;;18.80;40.50;;;;;;5112324;28;20534;-83
2023/02/20 12:11:15;;;;;;;4.00;0.73;;;18.80;40.70;;;;;;5115894;28;20164;-84
2023/02/20 12:13:43;;;;;;;9.43;0.80;;;18.80;40.70;;;;;;5115982;28;20156;-84
2023/02/20 12:16:31;;;;;;;3.70;0.35;;;18.80;40.70;;;;;;5115465;28;20152;-86
2023/02/20 12:19:21;;;;;;;3.22;0.30;;;18.80;40.80;;;;;;5082808;28;20499;-85
2023/02/20 12:22:14;;;;;;;6.03;0.55;;;18.80;40.60;;;;;;5098953;28;20188;-84
2023/02/20 12:25:04;;;;;;;2.42;0.20;;;18.90;40.80;;;;;;5100713;28;20164;-85
2023/02/20 12:28:04;;;;;;;2.30;0.50;;;18.90;40.60;;;;;;5118121;28;20211;-86
2023/02/20 12:30:55;;;;;;;1.13;0.28;;;18.80;40.70;;;;;;5122629;27;20166;-85
2023/02/20 12:33:54;;;;;;;2.13;0.45;;;18.70;40.80;;;;;;5116387;27;20164;-86
2023/02/20 12:36:46;;;;;;;1.13;0.22;;;18.70;40.90;;;;;;5136919;27;20250;-85
2023/02/20 12:39:33;;;;;;;2.13;0.30;;;18.70;41.30;;;;;;5116065;27;20255;-85
2023/02/20 12:42:19;;;;;;;0.77;0.20;;;18.70;41.10;;;;;;5100391;28;20237;-85
2023/02/20 12:45:14;;;;;;;2.63;0.50;;;18.60;41.30;;;;;;5117269;28;20148;-85
2023/02/20 12:47:42;;;;;;;1.92;0.22;;;18.50;41.20;;;;;;5100680;28;20156;-85
2023/02/20 12:50:29;;;;;;;5.60;0.60;;;18.70;41.30;;;;;;5116232;28;20159;-85
2023/02/20 12:53:09;;;;;;;4.20;0.40;;;18.60;41.30;;;;;;5116444;28;20163;-85
2023/02/20 12:56:02;;;;;;;3.97;0.20;;;18.70;41.40;;;;;;5099542;28;20615;-84
2023/02/20 12:58:35;;;;;;;0.65;0.30;;;18.70;41.40;;;;;;5101058;28;20239;-84
2023/02/20 13:01:04;;;;;;;2.25;0.30;;;18.60;41.50;;;;;;5120278;27;20368;-86
2023/02/20 13:03:40;;;;;;;0.75;0.30;;;18.70;41.80;;;;;;5104981;27;20172;-84
2023/02/20 13:06:06;;;;;;;1.65;0.20;;;18.70;41.70;;;;;;5136234;27;20565;-84
2023/02/20 13:08:36;;;;;;;1.98;0.30;;;18.70;41.70;;;;;;5137382;27;20175;-84
2023/02/20 13:11:09;;;;;;;0.73;0.20;;;18.70;41.80;;;;;;5132547;27;20152;-84
2023/02/20 13:13:41;;;;;;;1.50;0.40;;;18.80;41.80;;;;;;5095120;28;20223;-84
2023/02/20 13:16:15;;;;;;;3.88;0.50;;;18.80;41.70;;;;;;5096198;28;20247;-84
2023/02/20 13:18:47;;;;;;;1.20;0.38;;;18.80;41.60;;;;;;5113503;27;20191;-84
2023/02/20 13:21:15;;;;;;;1.08;0.30;;;18.80;41.70;;;;;;5115866;28;20638;-85
2023/02/20 13:23:41;;;;;;;0.95;0.20;;;18.90;41.60;;;;;;5132039;27;20190;-84
2023/02/20 13:26:42;;;;;;;0.82;0.25;;;18.90;41.50;;;;;;5115271;28;20166;-85
2023/02/20 13:29:13;;;;;;;1.08;0.20;;;18.90;41.40;;;;;;5114795;28;20309;-85
2023/02/20 13:31:47;;;;;;;0.10;0.10;;;18.90;41.40;;;;;;5111282;28;20184;-84